createdAt,value
2023-04-25T00:01:49.292Z,96955.50
2023-04-25T00:04:17.190Z,96957.31
2023-04-25T00:06:45.025Z,96960.53
2023-04-25T00:09:12.524Z,96960.75
2023-04-25T00:11:41.449Z,96959.16
2023-04-25T00:14:09.050Z,96960.19
2023-04-25T00:16:37.127Z,96959.53
2023-04-25T00:19:11.628Z,96959.72
2023-04-25T00:21:41.630Z,96962.47
2023-04-25T00:24:09.515Z,96958.81
2023-04-25T00:26:37.189Z,96959.91
2023-04-25T00:29:04.621Z,96960.28
2023-04-25T00:31:32.143Z,96962.59
2023-04-25T00:33:59.512Z,96953.38
2023-04-25T00:36:27.092Z,96956.84
2023-04-25T00:38:56.011Z,96956.50
2023-04-25T00:41:24.898Z,96960.22
2023-04-25T00:43:54.867Z,96958.78
2023-04-25T00:46:22.571Z,96961.59
2023-04-25T00:48:49.879Z,96964.34
2023-04-25T00:51:24.505Z,96958.63
2023-04-25T00:53:52.679Z,96961.97
2023-04-25T00:56:22.421Z,96970.31
2023-04-25T00:58:51.526Z,96968.41
2023-04-25T01:01:19.291Z,96964.75
2023-04-25T01:03:47.973Z,96964.75
2023-04-25T01:06:15.720Z,96969.84
2023-04-25T01:08:43.016Z,96966.78
2023-04-25T01:11:10.565Z,96970.28
2023-04-25T01:13:37.864Z,96963.22
2023-04-25T01:16:05.993Z,96974.16
2023-04-25T01:18:33.370Z,96972.16
2023-04-25T01:21:11.119Z,96974.69
2023-04-25T01:23:41.913Z,96978.97
2023-04-25T01:26:13.530Z,96973.69
2023-04-25T01:28:42.511Z,96982.06
2023-04-25T01:31:11.546Z,96986.53
2023-04-25T01:33:38.968Z,96986.78
2023-04-25T01:36:07.222Z,96984.94
2023-04-25T01:38:34.944Z,96980.72
2023-04-25T01:41:02.800Z,96984.28
2023-04-25T01:43:30.329Z,96983.91
2023-04-25T01:45:58.592Z,96993.41
2023-04-25T01:48:26.070Z,96987.56
2023-04-25T01:50:53.659Z,96996.78
2023-04-25T01:53:21.160Z,96987.41
2023-04-25T01:55:48.675Z,96991.72
2023-04-25T01:58:16.381Z,96997.56
2023-04-25T02:00:43.926Z,96995.25
2023-04-25T02:03:11.350Z,96998.41
2023-04-25T02:05:41.485Z,97000.19
2023-04-25T02:08:11.504Z,97007.28
2023-04-25T02:10:39.407Z,97002.38
2023-04-25T02:13:06.708Z,97007.34
2023-04-25T02:15:34.381Z,97010.50
2023-04-25T02:18:01.960Z,97014.50
2023-04-25T02:20:31.691Z,97015.38
2023-04-25T02:22:58.974Z,97010.69
2023-04-25T02:25:26.858Z,97018.53
2023-04-25T02:27:54.985Z,97014.81
2023-04-25T02:30:22.623Z,97012.88
2023-04-25T02:32:50.011Z,97013.97
2023-04-25T02:35:17.808Z,97007.25
2023-04-25T02:37:45.126Z,97008.47
2023-04-25T02:40:13.001Z,97013.44
2023-04-25T02:42:40.328Z,97009.34
2023-04-25T02:45:08.822Z,97004.81
2023-04-25T02:47:36.133Z,97017.59
2023-04-25T02:50:04.562Z,97011.94
2023-04-25T02:52:33.221Z,97011.69
2023-04-25T02:55:01.210Z,97008.78
2023-04-25T02:57:28.528Z,97013.34
2023-04-25T02:59:56.601Z,97011.25
2023-04-25T03:02:25.217Z,97015.09
2023-04-25T03:04:55.277Z,97014.94
2023-04-25T03:07:22.704Z,97010.84
2023-04-25T03:09:50.282Z,97009.06
2023-04-25T03:12:17.960Z,97020.91
2023-04-25T03:14:47.718Z,97011.94
2023-04-25T03:17:15.296Z,97004.38
2023-04-25T03:19:44.335Z,97004.09
2023-04-25T03:22:14.474Z,97012.91
2023-04-25T03:24:42.308Z,97008.25
2023-04-25T03:27:10.774Z,97010.84
2023-04-25T03:29:38.391Z,97008.09
2023-04-25T03:32:05.908Z,97009.91
2023-04-25T03:34:33.475Z,97021.06
2023-04-25T03:37:01.106Z,97016.78
2023-04-25T03:39:28.696Z,97023.38
2023-04-25T03:41:56.258Z,97020.63
2023-04-25T03:44:25.502Z,97027.66
2023-04-25T03:46:52.780Z,97032.06
2023-04-25T03:49:20.427Z,97037.13
2023-04-25T03:51:49.287Z,97038.50
2023-04-25T03:54:16.878Z,97037.69
2023-04-25T03:56:44.150Z,97041.66
2023-04-25T03:59:11.805Z,97048.69
2023-04-25T04:01:39.036Z,97045.38
2023-04-25T04:04:06.798Z,97045.09
2023-04-25T04:06:34.283Z,97045.66
2023-04-25T04:09:01.772Z,97051.72
2023-04-25T04:11:28.999Z,97053.78
2023-04-25T04:13:56.510Z,97057.06
2023-04-25T04:16:23.941Z,97057.47
2023-04-25T04:18:51.547Z,97058.31
2023-04-25T04:21:18.888Z,97059.31
2023-04-25T04:23:47.690Z,97060.28
2023-04-25T04:26:17.396Z,97066.75
2023-04-25T04:28:47.961Z,97063.13
2023-04-25T04:31:18.048Z,97071.00
2023-04-25T04:33:45.873Z,97062.75
2023-04-25T04:36:13.347Z,97063.41
2023-04-25T04:38:43.419Z,97063.44
2023-04-25T04:41:10.857Z,97073.03
2023-04-25T04:43:38.534Z,97064.22
2023-04-25T04:46:06.068Z,97068.91
2023-04-25T04:48:35.410Z,97061.94
2023-04-25T04:51:02.672Z,97067.03
2023-04-25T04:53:30.222Z,97067.00
2023-04-25T04:55:57.453Z,97067.03
2023-04-25T04:58:24.965Z,97061.38
2023-04-25T05:00:52.251Z,97057.75
2023-04-25T05:03:20.201Z,97057.91
2023-04-25T05:05:48.303Z,97058.28
2023-04-25T05:08:15.968Z,97066.03
2023-04-25T05:10:43.346Z,97060.06
2023-04-25T05:13:11.038Z,97065.41
2023-04-25T05:15:38.311Z,97059.38
2023-04-25T05:18:06.221Z,97066.53
2023-04-25T05:20:33.573Z,97067.31
2023-04-25T05:23:01.240Z,97072.31
2023-04-25T05:25:28.544Z,97075.19
2023-04-25T05:27:56.134Z,97065.09
2023-04-25T05:30:23.492Z,97068.88
2023-04-25T05:32:51.575Z,97062.59
2023-04-25T05:35:19.023Z,97072.78
2023-04-25T05:37:46.635Z,97072.38
2023-04-25T05:40:14.262Z,97071.31
2023-04-25T05:42:41.803Z,97078.66
2023-04-25T05:45:09.460Z,97078.91
2023-04-25T05:47:37.055Z,97076.19
2023-04-25T05:50:04.852Z,97074.38
2023-04-25T05:52:32.528Z,97081.84
2023-04-25T05:54:59.757Z,97083.16
2023-04-25T05:57:28.801Z,97095.78
2023-04-25T05:59:56.114Z,97080.88
2023-04-25T06:02:23.932Z,97094.06
2023-04-25T06:04:52.464Z,97096.63
2023-04-25T06:07:23.275Z,97095.19
2023-04-25T06:09:50.773Z,97076.94
2023-04-25T06:12:18.372Z,97080.66
2023-04-25T06:14:45.671Z,97079.88
2023-04-25T06:17:13.256Z,97087.50
2023-04-25T06:19:40.611Z,97099.72
2023-04-25T06:22:09.400Z,97100.63
2023-04-25T06:24:36.940Z,97095.28
2023-04-25T06:27:04.473Z,97094.88
2023-04-25T06:29:31.839Z,97095.78
2023-04-25T06:31:59.341Z,97113.09
2023-04-25T06:34:26.969Z,97101.78
2023-04-25T06:36:54.524Z,97108.38
2023-04-25T06:39:24.283Z,97102.09
2023-04-25T06:41:52.314Z,97116.69
2023-04-25T06:44:19.569Z,97104.47
2023-04-25T06:46:47.147Z,97109.41
2023-04-25T06:49:14.364Z,97100.81
2023-04-25T06:51:42.457Z,97102.09
2023-04-25T06:54:09.711Z,97098.56
2023-04-25T06:56:37.314Z,97099.47
2023-04-25T06:59:04.588Z,97106.94
2023-04-25T07:01:32.207Z,97098.56
2023-04-25T07:03:59.700Z,97096.47
2023-04-25T07:06:28.860Z,97101.19
2023-04-25T07:08:56.880Z,97098.50
2023-04-25T07:11:24.482Z,97097.28
2023-04-25T07:13:51.714Z,97102.75
2023-04-25T07:16:19.316Z,97093.28
2023-04-25T07:18:46.553Z,97102.38
2023-04-25T07:21:14.112Z,97098.09
2023-04-25T07:23:41.906Z,97098.50
2023-04-25T07:26:09.499Z,97094.03
2023-04-25T07:28:36.836Z,97089.19
2023-04-25T07:31:04.596Z,97092.09
2023-04-25T07:33:32.152Z,97097.59
2023-04-25T07:35:59.754Z,97096.00
2023-04-25T07:38:27.559Z,97096.44
2023-04-25T07:40:55.204Z,97097.63
2023-04-25T07:43:22.637Z,97102.44
2023-04-25T07:45:50.290Z,97103.53
2023-04-25T07:48:20.897Z,97097.00
2023-04-25T07:50:48.505Z,97100.47
2023-04-25T07:53:16.952Z,97097.13
2023-04-25T07:55:44.712Z,97093.84
2023-04-25T07:58:13.369Z,97103.41
2023-04-25T08:00:42.822Z,97101.75
2023-04-25T08:03:11.146Z,97100.44
2023-04-25T08:05:39.119Z,97102.53
2023-04-25T08:08:07.736Z,97098.94
2023-04-25T08:10:35.667Z,97108.06
2023-04-25T08:13:03.597Z,97096.78
2023-04-25T08:15:31.424Z,97099.25
2023-04-25T08:17:59.166Z,97089.28
2023-04-25T08:20:27.405Z,97089.84
2023-04-25T08:22:54.927Z,97086.47
2023-04-25T08:25:22.538Z,97088.38
2023-04-25T08:27:50.001Z,97083.34
2023-04-25T08:30:17.660Z,97089.69
2023-04-25T08:32:45.232Z,97088.72
2023-04-25T08:35:12.975Z,97085.81
2023-04-25T08:37:40.337Z,97086.81
2023-04-25T08:40:13.305Z,97094.75
2023-04-25T08:42:43.542Z,97093.41
2023-04-25T08:45:11.916Z,97086.09
2023-04-25T08:47:41.062Z,97084.78
2023-04-25T08:50:09.212Z,97093.81
2023-04-25T08:52:49.228Z,97089.75
2023-04-25T08:55:17.897Z,97085.63
2023-04-25T08:57:46.074Z,97081.09
2023-04-25T09:00:14.491Z,97078.25
2023-04-25T09:02:44.297Z,97074.91
2023-04-25T09:05:15.192Z,97081.47
2023-04-25T09:07:42.680Z,97081.53
2023-04-25T09:10:10.853Z,97094.13
2023-04-25T09:12:38.713Z,97097.34
2023-04-25T09:15:20.472Z,97092.00
2023-04-25T09:17:58.090Z,97088.81
2023-04-25T09:20:26.276Z,97094.19
2023-04-25T09:23:06.403Z,97094.56
2023-04-25T09:25:40.363Z,97099.94
2023-04-25T09:28:08.226Z,97100.19
2023-04-25T09:30:37.891Z,97095.28
2023-04-25T09:33:12.366Z,97092.28
2023-04-25T09:35:43.455Z,97102.34
2023-04-25T09:38:13.906Z,97098.69
2023-04-25T09:40:47.335Z,97095.81
2023-04-25T09:43:26.777Z,97093.84
2023-04-25T09:45:59.169Z,97097.00
2023-04-25T09:48:29.009Z,97098.47
2023-04-25T09:51:15.615Z,97087.91
2023-04-25T09:53:53.197Z,97100.31
2023-04-25T09:56:23.511Z,97095.50
2023-04-25T09:58:55.754Z,97102.06
2023-04-25T10:01:24.769Z,97093.31
2023-04-25T10:03:59.131Z,97085.59
2023-04-25T10:06:29.387Z,97083.13
2023-04-25T10:08:57.909Z,97090.41
2023-04-25T10:11:28.095Z,97087.41
2023-04-25T10:13:57.081Z,97081.38
2023-04-25T10:16:26.183Z,97082.31
2023-04-25T10:18:53.663Z,97084.50
2023-04-25T10:21:22.832Z,97086.38
2023-04-25T10:23:51.472Z,97081.84
2023-04-25T10:26:20.035Z,97087.00
2023-04-25T10:29:03.169Z,97073.97
2023-04-25T10:31:32.315Z,97080.19
2023-04-25T10:34:02.557Z,97085.59
2023-04-25T10:36:33.796Z,97083.19
2023-04-25T10:39:10.341Z,97085.09
2023-04-25T10:41:59.082Z,97084.00
2023-04-25T10:44:31.064Z,97083.16
2023-04-25T10:47:01.641Z,97081.03
2023-04-25T10:49:38.590Z,97079.47
2023-04-25T10:52:16.615Z,97071.88
2023-04-25T10:54:55.349Z,97069.47
2023-04-25T10:57:45.112Z,97075.59
2023-04-25T11:00:19.731Z,97075.34
2023-04-25T11:02:58.784Z,97074.88
2023-04-25T11:05:43.760Z,97073.78
2023-04-25T11:08:41.995Z,97079.75
2023-04-25T11:11:09.940Z,97088.59
2023-04-25T11:13:37.660Z,97087.53
2023-04-25T11:16:13.140Z,97081.72
2023-04-25T11:18:46.025Z,97089.53
2023-04-25T11:21:14.512Z,97077.88
2023-04-25T11:23:42.165Z,97081.41
2023-04-25T11:26:09.492Z,97080.78
2023-04-25T11:28:37.155Z,97089.97
2023-04-25T11:31:05.650Z,97093.94
2023-04-25T11:33:33.283Z,97094.50
2023-04-25T11:36:00.907Z,97090.69
2023-04-25T11:38:29.504Z,97097.13
2023-04-25T11:40:57.905Z,97091.38
2023-04-25T11:43:26.993Z,97092.84
2023-04-25T11:45:54.292Z,97087.78
2023-04-25T11:48:24.114Z,97085.69
2023-04-25T11:50:56.223Z,97092.09
2023-04-25T11:53:25.848Z,97092.09
2023-04-25T11:55:53.369Z,97091.53
2023-04-25T11:58:21.645Z,97093.34
2023-04-25T12:00:51.177Z,97092.69
2023-04-25T12:03:20.383Z,97096.97
2023-04-25T12:05:47.994Z,97095.44
2023-04-25T12:08:17.443Z,97080.19
2023-04-25T12:10:47.292Z,97087.63
2023-04-25T12:13:29.290Z,97083.34
2023-04-25T12:15:57.634Z,97093.00
2023-04-25T12:18:28.938Z,97084.22
2023-04-25T12:20:57.190Z,97088.47
2023-04-25T12:23:29.356Z,97084.84
2023-04-25T12:25:57.251Z,97094.16
2023-04-25T12:28:28.702Z,97091.63
2023-04-25T12:31:07.356Z,97096.44
2023-04-25T12:33:40.471Z,97092.34
2023-04-25T12:36:13.303Z,97096.97
2023-04-25T12:38:43.498Z,97100.22
2023-04-25T12:41:11.188Z,97090.22
2023-04-25T12:43:38.734Z,97097.31
2023-04-25T12:46:06.180Z,97092.72
2023-04-25T12:48:33.962Z,97088.22
2023-04-25T12:51:01.382Z,97084.59
2023-04-25T12:53:28.956Z,97084.81
2023-04-25T12:55:57.083Z,97082.16
2023-04-25T12:58:25.994Z,97078.84
2023-04-25T13:00:53.316Z,97078.38
2023-04-25T13:03:21.107Z,97074.75
2023-04-25T13:05:48.543Z,97081.44
2023-04-25T13:08:16.441Z,97076.34
2023-04-25T13:10:43.820Z,97073.63
2023-04-25T13:13:11.680Z,97078.81
2023-04-25T13:15:38.954Z,97080.66
2023-04-25T13:18:09.502Z,97076.63
2023-04-25T13:20:36.930Z,97082.19
2023-04-25T13:23:04.454Z,97076.09
2023-04-25T13:25:31.725Z,97080.59
2023-04-25T13:27:59.395Z,97077.63
2023-04-25T13:30:26.848Z,97079.38
2023-04-25T13:32:58.068Z,97073.31
2023-04-25T13:35:25.738Z,97065.25
2023-04-25T13:37:53.196Z,97066.81
2023-04-25T13:40:20.542Z,97074.53
2023-04-25T13:42:48.105Z,97068.69
2023-04-25T13:45:16.080Z,97080.47
2023-04-25T13:47:43.822Z,97068.63
2023-04-25T13:50:11.649Z,97076.66
2023-04-25T13:52:39.180Z,97070.72
2023-04-25T13:55:08.434Z,97069.91
2023-04-25T13:57:39.376Z,97079.19
2023-04-25T14:00:15.421Z,97077.19
2023-04-25T14:02:43.114Z,97082.72
2023-04-25T14:05:10.746Z,97079.28
2023-04-25T14:07:38.485Z,97081.03
2023-04-25T14:10:06.976Z,97085.81
2023-04-25T14:12:34.787Z,97077.06
2023-04-25T14:15:02.047Z,97079.16
2023-04-25T14:17:29.670Z,97073.44
2023-04-25T14:19:57.226Z,97079.78
2023-04-25T14:22:24.848Z,97076.03
2023-04-25T14:24:52.232Z,97076.91
2023-04-25T14:27:19.987Z,97076.75
2023-04-25T14:29:47.397Z,97080.34
2023-04-25T14:32:14.912Z,97084.00
2023-04-25T14:34:42.186Z,97084.84
2023-04-25T14:37:09.952Z,97084.69
2023-04-25T14:39:37.891Z,97082.47
2023-04-25T14:42:05.595Z,97075.88
2023-04-25T14:44:32.912Z,97078.28
2023-04-25T14:47:00.747Z,97075.09
2023-04-25T14:49:29.300Z,97084.09
2023-04-25T14:51:56.834Z,97080.44
2023-04-25T14:54:24.089Z,97086.38
2023-04-25T14:56:52.491Z,97080.09
2023-04-25T14:59:20.866Z,97073.44
2023-04-25T15:01:48.544Z,97078.91
2023-04-25T15:04:16.482Z,97079.34
2023-04-25T15:06:45.209Z,97078.53
2023-04-25T15:09:14.119Z,97081.63
2023-04-25T15:11:41.809Z,97078.53
2023-04-25T15:14:09.291Z,97079.31
2023-04-25T15:16:36.890Z,97077.06
2023-04-25T15:19:04.975Z,97082.72
2023-04-25T15:21:33.088Z,97081.88
2023-04-25T15:24:01.031Z,97079.31
2023-04-25T15:26:29.537Z,97088.75
2023-04-25T15:28:56.985Z,97089.75
2023-04-25T15:31:24.548Z,97090.09
2023-04-25T15:33:52.102Z,97088.84
2023-04-25T15:36:21.663Z,97093.69
2023-04-25T15:38:49.000Z,97091.22
2023-04-25T15:41:16.671Z,97091.94
2023-04-25T15:43:43.916Z,97096.00
2023-04-25T15:46:11.714Z,97092.50
2023-04-25T15:48:39.019Z,97096.47
2023-04-25T15:51:06.771Z,97098.34
2023-04-25T15:53:34.047Z,97112.50
2023-04-25T15:56:02.010Z,97095.97
2023-04-25T15:58:29.210Z,97100.56
2023-04-25T16:00:57.607Z,97096.13
2023-04-25T16:03:25.085Z,97090.22
2023-04-25T16:05:53.649Z,97093.31
2023-04-25T16:08:21.459Z,97092.31
2023-04-25T16:10:49.595Z,97100.06
2023-04-25T16:13:16.892Z,97098.94
2023-04-25T16:15:44.442Z,97096.69
2023-04-25T16:18:12.010Z,97099.88
2023-04-25T16:20:39.852Z,97101.44
2023-04-25T16:23:07.099Z,97103.41
2023-04-25T16:25:36.345Z,97111.16
2023-04-25T16:28:03.650Z,97115.94
2023-04-25T16:30:31.612Z,97101.75
2023-04-25T16:32:59.100Z,97105.56
2023-04-25T16:35:30.501Z,97111.78
2023-04-25T16:37:58.336Z,97113.78
2023-04-25T16:40:26.362Z,97116.22
2023-04-25T16:42:53.724Z,97120.03
2023-04-25T16:45:21.829Z,97114.59
2023-04-25T16:47:49.167Z,97104.56
2023-04-25T16:50:18.922Z,97112.91
2023-04-25T16:52:46.352Z,97111.78
2023-04-25T16:55:13.890Z,97116.53
2023-04-25T16:57:41.366Z,97123.97
2023-04-25T17:00:10.064Z,97117.06
2023-04-25T17:02:39.095Z,97126.75
2023-04-25T17:05:07.363Z,97127.13
2023-04-25T17:07:34.708Z,97124.13
2023-04-25T17:10:02.656Z,97128.91
2023-04-25T17:12:30.786Z,97130.81
2023-04-25T17:15:00.571Z,97130.72
2023-04-25T17:17:28.410Z,97134.41
2023-04-25T17:19:56.095Z,97136.00
2023-04-25T17:22:24.450Z,97139.81
2023-04-25T17:24:52.043Z,97146.84
2023-04-25T17:27:19.364Z,97142.22
2023-04-25T17:29:47.052Z,97143.03
2023-04-25T17:32:17.277Z,97139.28
2023-04-25T17:34:46.350Z,97147.81
2023-04-25T17:37:16.409Z,97162.91
2023-04-25T17:39:46.039Z,97159.22
2023-04-25T17:42:14.678Z,97154.28
2023-04-25T17:44:43.362Z,97165.38
2023-04-25T17:47:11.709Z,97167.31
2023-04-25T17:49:40.215Z,97167.78
2023-04-25T17:52:07.595Z,97182.31
2023-04-25T17:54:35.417Z,97191.03
2023-04-25T17:57:02.702Z,97180.88
2023-04-25T17:59:31.239Z,97188.41
2023-04-25T18:02:00.079Z,97193.91
2023-04-25T18:04:28.014Z,97198.06
2023-04-25T18:06:55.778Z,97191.28
2023-04-25T18:09:23.881Z,97194.19
2023-04-25T18:11:53.641Z,97200.59
2023-04-25T18:14:22.915Z,97209.44
2023-04-25T18:16:54.913Z,97208.13
2023-04-25T18:19:23.450Z,97203.16
2023-04-25T18:21:54.528Z,97211.44
2023-04-25T18:24:27.216Z,97220.25
2023-04-25T18:26:57.030Z,97228.56
2023-04-25T18:29:32.852Z,97234.34
2023-04-25T18:32:00.985Z,97238.47
2023-04-25T18:34:28.690Z,97242.91
2023-04-25T18:36:56.909Z,97252.69
2023-04-25T18:39:25.987Z,97252.25
2023-04-25T18:42:01.592Z,97263.16
2023-04-25T18:44:33.887Z,97262.72
2023-04-25T18:47:01.327Z,97271.66
2023-04-25T18:49:28.986Z,97275.56
2023-04-25T18:51:57.533Z,97272.38
2023-04-25T18:54:25.465Z,97277.06
2023-04-25T18:56:55.703Z,97280.22
2023-04-25T18:59:24.149Z,97281.88
2023-04-25T19:01:53.608Z,97290.31
2023-04-25T19:04:21.888Z,97297.19
2023-04-25T19:06:51.482Z,97300.50
2023-04-25T19:09:19.503Z,97301.91
2023-04-25T19:11:47.244Z,97294.72
2023-04-25T19:14:15.302Z,97294.72
2023-04-25T19:16:42.801Z,97302.16
2023-04-25T19:19:10.918Z,97296.38
2023-04-25T19:21:38.566Z,97294.00
2023-04-25T19:24:07.244Z,97298.00
2023-04-25T19:26:35.535Z,97303.25
2023-04-25T19:29:08.927Z,97306.00
2023-04-25T19:31:38.040Z,97303.38
2023-04-25T19:34:07.148Z,97305.44
2023-04-25T19:36:37.118Z,97306.13
2023-04-25T19:39:07.359Z,97309.69
2023-04-25T19:41:37.613Z,97309.84
2023-04-25T19:44:08.619Z,97316.75
2023-04-25T19:46:37.644Z,97314.00
2023-04-25T19:49:07.875Z,97319.47
2023-04-25T19:51:36.672Z,97318.94
2023-04-25T19:54:04.817Z,97318.09
2023-04-25T19:56:32.639Z,97313.13
2023-04-25T19:59:00.429Z,97315.00
2023-04-25T20:01:28.081Z,97327.66
2023-04-25T20:03:56.608Z,97336.63
2023-04-25T20:06:24.199Z,97325.56
2023-04-25T20:08:56.047Z,97329.22
2023-04-25T20:11:23.489Z,97327.34
2023-04-25T20:13:51.499Z,97324.50
2023-04-25T20:16:19.953Z,97326.78
2023-04-25T20:18:49.100Z,97335.03
2023-04-25T20:21:17.681Z,97333.66
2023-04-25T20:23:46.353Z,97338.78
2023-04-25T20:26:14.277Z,97345.34
2023-04-25T20:28:42.155Z,97340.63
2023-04-25T20:31:11.590Z,97350.22
2023-04-25T20:33:39.359Z,97348.28
2023-04-25T20:36:06.901Z,97363.38
2023-04-25T20:38:34.563Z,97369.22
2023-04-25T20:41:02.246Z,97376.72
2023-04-25T20:43:31.388Z,97379.50
2023-04-25T20:46:00.468Z,97372.69
2023-04-25T20:48:28.143Z,97375.09
2023-04-25T20:50:55.528Z,97382.78
2023-04-25T20:53:23.286Z,97366.03
2023-04-25T20:55:50.602Z,97373.41
2023-04-25T20:58:18.488Z,97380.75
2023-04-25T21:00:47.585Z,97387.72
2023-04-25T21:03:16.228Z,97379.97
2023-04-25T21:05:43.761Z,97381.44
2023-04-25T21:08:11.320Z,97399.56
2023-04-25T21:10:38.705Z,97393.53
2023-04-25T21:13:06.273Z,97396.41
2023-04-25T21:15:33.805Z,97392.69
2023-04-25T21:18:02.131Z,97392.69
2023-04-25T21:20:29.553Z,97401.44
2023-04-25T21:22:57.124Z,97392.16
2023-04-25T21:25:30.245Z,97397.41
2023-04-25T21:27:59.258Z,97397.59
2023-04-25T21:30:27.434Z,97398.00
2023-04-25T21:32:55.249Z,97397.31
2023-04-25T21:35:23.351Z,97397.53
2023-04-25T21:37:51.548Z,97403.78
2023-04-25T21:40:19.665Z,97402.69
2023-04-25T21:42:51.386Z,97407.81
2023-04-25T21:45:20.111Z,97405.00
2023-04-25T21:47:48.659Z,97411.75
2023-04-25T21:50:17.087Z,97412.00
2023-04-25T21:52:44.670Z,97416.97
2023-04-25T21:55:11.996Z,97430.75
2023-04-25T21:57:39.650Z,97430.41
2023-04-25T22:00:21.354Z,97423.16
2023-04-25T22:02:49.131Z,97435.91
2023-04-25T22:05:17.506Z,97433.19
2023-04-25T22:07:45.110Z,97431.69
2023-04-25T22:10:12.498Z,97442.91
2023-04-25T22:12:41.521Z,97438.31
2023-04-25T22:15:09.630Z,97443.06
2023-04-25T22:17:37.217Z,97442.63
2023-04-25T22:20:14.399Z,97438.59
2023-04-25T22:22:42.913Z,97441.44
2023-04-25T22:25:12.592Z,97435.88
2023-04-25T22:27:43.897Z,97429.78
2023-04-25T22:30:15.489Z,97434.84
2023-04-25T22:32:43.674Z,97444.97
2023-04-25T22:35:11.766Z,97437.34
2023-04-25T22:37:41.135Z,97437.13
2023-04-25T22:40:11.747Z,97445.91
2023-04-25T22:42:40.957Z,97455.88
2023-04-25T22:45:09.902Z,97452.81
2023-04-25T22:47:39.196Z,97446.03
2023-04-25T22:50:13.153Z,97448.75
2023-04-25T22:52:42.701Z,97452.81
2023-04-25T22:55:12.442Z,97452.91
2023-04-25T22:57:41.700Z,97461.56
2023-04-25T23:00:20.089Z,97466.09
2023-04-25T23:02:49.923Z,97463.00
2023-04-25T23:05:17.516Z,97459.47
2023-04-25T23:07:45.404Z,97466.34
2023-04-25T23:10:15.760Z,97467.50
2023-04-25T23:12:43.744Z,97472.84
2023-04-25T23:15:12.531Z,97469.31
2023-04-25T23:17:40.956Z,97473.94
2023-04-25T23:20:11.071Z,97480.09
2023-04-25T23:22:39.013Z,97481.63
2023-04-25T23:25:07.900Z,97476.78
2023-04-25T23:27:35.825Z,97486.41
2023-04-25T23:30:03.422Z,97484.63
2023-04-25T23:32:32.015Z,97486.50
2023-04-25T23:34:59.359Z,97482.97
2023-04-25T23:37:26.919Z,97485.56
2023-04-25T23:39:54.260Z,97490.28
2023-04-25T23:42:21.847Z,97492.31
2023-04-25T23:44:49.239Z,97493.88
2023-04-25T23:47:19.047Z,97494.78
2023-04-25T23:49:46.659Z,97490.91
2023-04-25T23:52:14.236Z,97500.75
2023-04-25T23:54:41.523Z,97487.94
2023-04-25T23:57:09.136Z,97492.53
2023-04-25T23:59:36.392Z,97502.88
